Time;durP1;ratioP1;P1;durP2;ratioP2;P2;SDS_P1;SDS_P2;PMS_P1;PMS_P2;Temp;Humidity;BMP_temperature;BMP_pressure;BME280_temperature;BME280_humidity;BME280_pressure;Samples;Min_cycle;Max_cycle;Signal;HPM_P1;HPM_P2
2022/02/23 00:01:40;;;;;;;0.00;0.00;;;;;21.90;100583.00;;;;5018858;28;20045;-82
2022/02/23 00:04:10;;;;;;;0.00;0.00;;;;;21.80;100594.00;;;;5027446;28;20508;-80
2022/02/23 00:06:40;;;;;;;0.00;0.00;;;;;21.70;100606.00;;;;5024821;28;20227;-80
2022/02/23 00:09:10;;;;;;;0.00;0.00;;;;;21.70;100613.00;;;;5018471;28;20107;-81
2022/02/23 00:11:41;;;;;;;0.00;0.00;;;;;21.60;100624.00;;;;5016679;28;20285;-81
2022/02/23 00:14:11;;;;;;;0.00;0.00;;;;;21.60;100620.00;;;;5020631;28;20139;-81
2022/02/23 00:16:42;;;;;;;0.00;0.00;;;;;21.70;100616.00;;;;5018673;28;20053;-82
2022/02/23 00:19:11;;;;;;;0.00;0.00;;;;;21.60;100627.00;;;;5018682;28;20471;-80
2022/02/23 00:21:44;;;;;;;0.00;0.00;;;;;21.50;100615.00;;;;5019479;28;20073;-80
2022/02/23 00:24:14;;;;;;;0.00;0.00;;;;;21.50;100640.00;;;;5016825;28;20033;-82
2022/02/23 00:26:45;;;;;;;0.00;0.00;;;;;21.50;100621.00;;;;5024870;28;20111;-81
2022/02/23 00:29:14;;;;;;;0.00;0.00;;;;;21.50;100614.00;;;;5025298;28;20534;-81
2022/02/23 00:31:46;;;;;;;0.00;0.00;;;;;21.40;100597.00;;;;5027251;28;20065;-82
2022/02/23 00:34:16;;;;;;;0.00;0.00;;;;;21.40;100636.00;;;;5028360;28;20050;-79
2022/02/23 00:36:48;;;;;;;0.00;0.00;;;;;21.30;100630.00;;;;5025383;28;20064;-81
2022/02/23 00:39:17;;;;;;;0.00;0.00;;;;;21.30;100620.00;;;;5042379;28;20046;-80
2022/02/23 00:41:48;;;;;;;;;;;;;21.30;100628.00;;;;5027239;28;20041;-81
2022/02/23 00:44:18;;;;;;;0.00;0.00;;;;;21.30;100617.00;;;;5026440;28;19921;-80
2022/02/23 00:46:50;;;;;;;0.00;0.00;;;;;21.30;100612.00;;;;5026101;28;20623;-82
2022/02/23 00:49:20;;;;;;;0.00;0.00;;;;;21.20;100632.00;;;;5026247;28;20051;-82
2022/02/23 00:51:52;;;;;;;0.00;0.00;;;;;21.30;100610.00;;;;5025695;28;20608;-82
2022/02/23 00:54:22;;;;;;;0.00;0.00;;;;;21.30;100593.00;;;;5022986;28;20034;-80
2022/02/23 00:56:53;;;;;;;0.00;0.00;;;;;21.20;100587.00;;;;5023875;28;20041;-83
2022/02/23 00:59:22;;;;;;;0.00;0.00;;;;;21.20;100598.00;;;;5026061;28;20045;-82
2022/02/23 01:01:54;;;;;;;0.00;0.00;;;;;21.20;100609.00;;;;5027415;28;20045;-78
2022/02/23 01:04:25;;;;;;;0.00;0.00;;;;;21.10;100594.00;;;;5027795;28;20532;-82
2022/02/23 01:06:56;;;;;;;0.00;0.00;;;;;21.10;100614.00;;;;5026233;28;20033;-79
2022/02/23 01:09:25;;;;;;;0.00;0.00;;;;;21.00;100612.00;;;;5027831;28;20072;-80
2022/02/23 01:11:57;;;;;;;0.00;0.00;;;;;21.10;100621.00;;;;5027425;28;20045;-79
2022/02/23 01:14:26;;;;;;;0.00;0.00;;;;;21.10;100630.00;;;;5025793;28;20053;-79
2022/02/23 01:16:58;;;;;;;0.00;0.00;;;;;21.20;100637.00;;;;5026998;28;20392;-80
2022/02/23 01:19:28;;;;;;;0.00;0.00;;;;;21.20;100622.00;;;;5025132;28;20084;-78
2022/02/23 01:22:00;;;;;;;0.00;0.00;;;;;21.20;100643.00;;;;5026389;28;20152;-80
2022/02/23 01:24:29;;;;;;;0.00;0.00;;;;;21.30;100638.00;;;;5026033;28;20045;-81
2022/02/23 01:27:01;;;;;;;0.00;0.00;;;;;21.30;100652.00;;;;5025678;28;20057;-82
2022/02/23 01:29:30;;;;;;;0.00;0.00;;;;;21.30;100639.00;;;;5026067;28;20046;-82
2022/02/23 01:32:04;;;;;;;0.00;0.00;;;;;21.40;100636.00;;;;5024253;28;20500;-81
2022/02/23 01:34:34;;;;;;;0.00;0.00;;;;;21.40;100636.00;;;;5024742;28;20650;-81
2022/02/23 01:37:04;;;;;;;0.00;0.00;;;;;21.50;100640.00;;;;5007786;28;20052;-80
2022/02/23 01:39:33;;;;;;;0.00;0.00;;;;;21.50;100624.00;;;;5026743;28;20045;-80
2022/02/23 01:42:07;;;;;;;0.00;0.00;;;;;21.50;100647.00;;;;5025251;28;20125;-83
2022/02/23 01:44:37;;;;;;;0.00;0.00;;;;;21.50;100635.00;;;;5025238;28;20041;-79
2022/02/23 01:47:07;;;;;;;0.00;0.00;;;;;21.60;100638.00;;;;5026093;28;20092;-81
2022/02/23 01:49:36;;;;;;;0.00;0.00;;;;;21.60;100621.00;;;;5009058;28;20098;-79
2022/02/23 01:52:10;;;;;;;0.00;0.00;;;;;21.60;100642.00;;;;5026846;28;20045;-80
2022/02/23 01:54:39;;;;;;;0.00;0.00;;;;;21.70;100640.00;;;;5027063;28;20419;-81
2022/02/23 01:57:09;;;;;;;0.03;0.03;;;;;21.60;100654.00;;;;5026031;28;20038;-82
2022/02/23 01:59:39;;;;;;;0.00;0.00;;;;;21.60;100652.00;;;;5026271;28;20096;-79
2022/02/23 02:02:10;;;;;;;;;;;;;21.60;100654.00;;;;5026866;28;20045;-80
2022/02/23 02:04:39;;;;;;;0.00;0.00;;;;;21.50;100661.00;;;;5025325;28;19921;-79
2022/02/23 02:07:12;;;;;;;0.00;0.00;;;;;21.40;100638.00;;;;5025516;28;20050;-81
2022/02/23 02:09:41;;;;;;;0.00;0.00;;;;;21.40;100651.00;;;;5027261;28;20045;-79
2022/02/23 02:12:13;;;;;;;0.00;0.00;;;;;21.30;100655.00;;;;5025564;28;20531;-81
2022/02/23 02:14:42;;;;;;;0.00;0.00;;;;;21.20;100650.00;;;;5025636;28;20041;-81
2022/02/23 02:17:14;;;;;;;0.00;0.00;;;;;21.10;100655.00;;;;5025913;28;20041;-82
2022/02/23 02:19:44;;;;;;;0.00;0.00;;;;;21.10;100652.00;;;;5030665;28;20053;-82
2022/02/23 02:22:16;;;;;;;0.00;0.00;;;;;21.00;100664.00;;;;5030886;28;20444;-80
2022/02/23 02:24:45;;;;;;;0.00;0.00;;;;;21.00;100653.00;;;;5030663;28;20504;-81
2022/02/23 02:27:17;;;;;;;0.00;0.00;;;;;20.90;100653.00;;;;5030514;28;20517;-81
2022/02/23 02:29:46;;;;;;;0.00;0.00;;;;;20.90;100673.00;;;;5029653;28;20059;-79
2022/02/23 02:32:18;;;;;;;0.00;0.00;;;;;20.80;100665.00;;;;5029698;28;20415;-78
2022/02/23 02:34:48;;;;;;;0.00;0.00;;;;;20.90;100661.00;;;;5029532;28;20053;-80
2022/02/23 02:37:18;;;;;;;0.00;0.00;;;;;20.90;100673.00;;;;5030882;28;20047;-79
2022/02/23 02:39:47;;;;;;;0.00;0.00;;;;;21.00;100658.00;;;;5030212;28;20041;-81
2022/02/23 02:42:21;;;;;;;0.00;0.00;;;;;20.90;100671.00;;;;5029143;28;20076;-81
2022/02/23 02:44:51;;;;;;;0.00;0.00;;;;;20.80;100678.00;;;;5029583;28;20048;-78
2022/02/23 02:47:23;;;;;;;0.00;0.00;;;;;20.80;100669.00;;;;5030384;28;20152;-79
2022/02/23 02:49:53;;;;;;;0.00;0.00;;;;;20.90;100628.00;;;;5029600;28;20091;-81
2022/02/23 02:52:23;;;;;;;0.00;0.00;;;;;20.90;100670.00;;;;5029501;28;20424;-78
2022/02/23 02:54:53;;;;;;;0.00;0.00;;;;;20.90;100667.00;;;;5030816;28;20037;-80
2022/02/23 02:57:25;;;;;;;0.00;0.00;;;;;21.00;100656.00;;;;5031321;28;20084;-83
2022/02/23 02:59:54;;;;;;;0.00;0.00;;;;;21.00;100658.00;;;;5029742;28;20045;-80
2022/02/23 03:02:26;;;;;;;0.00;0.00;;;;;21.10;100659.00;;;;5028312;28;20077;-80
2022/02/23 03:04:56;;;;;;;0.00;0.00;;;;;21.00;100651.00;;;;5028756;28;20049;-79
2022/02/23 03:07:28;;;;;;;0.00;0.00;;;;;20.90;100667.00;;;;5013627;28;20057;-81
2022/02/23 03:09:58;;;;;;;0.00;0.00;;;;;20.80;100649.00;;;;5028349;28;20053;-81
2022/02/23 03:12:29;;;;;;;0.00;0.00;;;;;20.80;100656.00;;;;5029644;28;20045;-79
2022/02/23 03:14:59;;;;;;;0.00;0.00;;;;;20.70;100644.00;;;;5028007;28;20051;-78
2022/02/23 03:17:31;;;;;;;0.00;0.00;;;;;20.50;100655.00;;;;5031114;28;20045;-79
2022/02/23 03:20:00;;;;;;;0.00;0.00;;;;;20.60;100643.00;;;;5045178;28;20057;-78
2022/02/23 03:22:32;;;;;;;0.00;0.00;;;;;20.50;100633.00;;;;5028316;28;20132;-82
2022/02/23 03:25:02;;;;;;;0.00;0.00;;;;;20.40;100652.00;;;;5027834;28;20459;-80
2022/02/23 03:27:33;;;;;;;0.00;0.00;;;;;20.40;100664.00;;;;5030703;28;20088;-80
2022/02/23 03:30:03;;;;;;;0.00;0.00;;;;;20.30;100657.00;;;;5027394;28;20079;-80
2022/02/23 03:32:34;;;;;;;0.00;0.00;;;;;20.20;100643.00;;;;5028170;28;20088;-79
2022/02/23 03:35:04;;;;;;;0.00;0.00;;;;;20.30;100652.00;;;;5028323;28;20046;-78
2022/02/23 03:37:36;;;;;;;0.00;0.00;;;;;20.20;100647.00;;;;5027809;28;20088;-79
2022/02/23 03:40:06;;;;;;;0.00;0.00;;;;;20.10;100623.00;;;;5029033;28;20037;-80
2022/02/23 03:42:37;;;;;;;0.00;0.00;;;;;20.10;100638.00;;;;5029629;28;20128;-82
2022/02/23 03:45:07;;;;;;;0.00;0.00;;;;;20.10;100633.00;;;;5029322;28;20046;-79
2022/02/23 03:47:38;;;;;;;0.00;0.00;;;;;20.00;100618.00;;;;5027404;28;20072;-80
2022/02/23 03:50:08;;;;;;;0.10;0.10;;;;;20.00;100629.00;;;;5029333;28;20056;-80
2022/02/23 03:52:41;;;;;;;0.00;0.00;;;;;20.00;100614.00;;;;5028543;28;20041;-83
2022/02/23 03:55:11;;;;;;;0.00;0.00;;;;;19.90;100612.00;;;;5027670;28;20516;-82
2022/02/23 03:57:41;;;;;;;0.00;0.00;;;;;19.90;100619.00;;;;5028698;28;20431;-79
2022/02/23 04:00:14;;;;;;;0.00;0.00;;;;;19.90;100605.00;;;;5028345;28;20060;-80
2022/02/23 04:02:45;;;;;;;0.00;0.00;;;;;19.90;100599.00;;;;5027123;28;20045;-79
2022/02/23 04:05:14;;;;;;;0.00;0.00;;;;;19.90;100605.00;;;;5028377;28;20531;-79
2022/02/23 04:07:45;;;;;;;0.00;0.00;;;;;19.80;100605.00;;;;5027904;28;20048;-80
2022/02/23 04:10:19;;;;;;;0.00;0.00;;;;;19.80;100588.00;;;;5026910;28;20058;-79
2022/02/23 04:12:48;;;;;;;0.00;0.00;;;;;19.80;100593.00;;;;5029283;28;20033;-80
2022/02/23 04:15:18;;;;;;;0.00;0.00;;;;;19.70;100590.00;;;;5026606;28;20053;-77
2022/02/23 04:17:47;;;;;;;0.00;0.00;;;;;19.80;100593.00;;;;5027264;28;20229;-78
2022/02/23 04:20:16;;;;;;;0.00;0.00;;;;;19.90;100587.00;;;;5028919;28;20043;-80
2022/02/23 04:22:47;;;;;;;0.00;0.00;;;;;20.00;100568.00;;;;5029252;28;20042;-78
2022/02/23 04:25:17;;;;;;;0.00;0.00;;;;;20.00;100569.00;;;;5027708;28;20177;-77
2022/02/23 04:27:49;;;;;;;0.00;0.00;;;;;19.90;100564.00;;;;5028010;28;20049;-80
2022/02/23 04:30:19;;;;;;;0.00;0.00;;;;;19.80;100571.00;;;;5028582;28;20068;-79
2022/02/23 04:32:51;;;;;;;0.00;0.00;;;;;19.80;100583.00;;;;5029025;28;20649;-82
2022/02/23 04:35:20;;;;;;;0.00;0.00;;;;;19.70;100553.00;;;;5026595;28;20053;-81
2022/02/23 04:37:51;;;;;;;0.00;0.00;;;;;19.60;100573.00;;;;5024230;28;20045;-80
2022/02/23 04:40:21;;;;;;;0.00;0.00;;;;;19.60;100563.00;;;;5026369;28;20045;-82
2022/02/23 04:42:53;;;;;;;0.00;0.00;;;;;19.60;100573.00;;;;5026587;28;20045;-82
2022/02/23 04:45:23;;;;;;;0.00;0.00;;;;;19.60;100568.00;;;;5027407;28;20049;-80
2022/02/23 04:47:55;;;;;;;0.00;0.00;;;;;19.50;100551.00;;;;5025928;28;20037;-80
2022/02/23 04:50:24;;;;;;;0.00;0.00;;;;;19.40;100561.00;;;;5027789;28;20092;-81
2022/02/23 04:52:56;;;;;;;0.00;0.00;;;;;19.40;100545.00;;;;5027019;28;20064;-80
2022/02/23 04:55:26;;;;;;;0.00;0.00;;;;;19.40;100542.00;;;;5026998;28;20048;-79
2022/02/23 04:57:57;;;;;;;0.00;0.00;;;;;19.50;100550.00;;;;5025910;28;20159;-81
2022/02/23 05:00:27;;;;;;;0.00;0.00;;;;;19.40;100555.00;;;;5027235;28;20060;-79
2022/02/23 05:02:59;;;;;;;0.30;0.30;;;;;19.40;100539.00;;;;5025451;28;20041;-80
2022/02/23 05:05:28;;;;;;;0.00;0.00;;;;;19.40;100543.00;;;;5026900;28;20049;-81
2022/02/23 05:08:00;;;;;;;0.00;0.00;;;;;19.40;100530.00;;;;5027237;28;20091;-79
2022/02/23 05:10:29;;;;;;;0.00;0.00;;;;;19.30;100516.00;;;;5025668;28;20050;-78
2022/02/23 05:12:59;;;;;;;0.00;0.00;;;;;19.30;100538.00;;;;5026889;28;20045;-81
2022/02/23 05:15:29;;;;;;;0.00;0.00;;;;;19.30;100520.00;;;;5025317;28;20416;-81
2022/02/23 05:17:58;;;;;;;0.00;0.00;;;;;19.30;100525.00;;;;5025773;28;20107;-80
2022/02/23 05:20:28;;;;;;;0.00;0.00;;;;;19.20;100536.00;;;;5025351;28;20065;-81
2022/02/23 05:22:57;;;;;;;0.00;0.00;;;;;19.20;100518.00;;;;5026837;28;20046;-80
2022/02/23 05:25:26;;;;;;;0.00;0.00;;;;;19.20;100504.00;;;;5027344;28;20056;-78
2022/02/23 05:27:56;;;;;;;0.00;0.00;;;;;19.10;100517.00;;;;5025352;28;20073;-80
2022/02/23 05:30:26;;;;;;;0.00;0.00;;;;;19.10;100506.00;;;;5026037;28;20045;-81
2022/02/23 05:32:55;;;;;;;0.00;0.00;;;;;19.10;100508.00;;;;5026766;28;20572;-80
2022/02/23 05:35:25;;;;;;;0.00;0.00;;;;;19.00;100513.00;;;;5026869;28;20045;-82
2022/02/23 05:37:54;;;;;;;0.00;0.00;;;;;19.00;100506.00;;;;5026585;28;20088;-79
2022/02/23 05:40:23;;;;;;;0.00;0.00;;;;;19.00;100513.00;;;;5041562;28;20041;-79
2022/02/23 05:42:56;;;;;;;0.00;0.00;;;;;18.90;100513.00;;;;5026279;28;20103;-79
2022/02/23 05:45:29;;;;;;;0.00;0.00;;;;;19.00;100507.00;;;;5025275;28;20513;-80
2022/02/23 05:47:59;;;;;;;0.00;0.00;;;;;19.00;100508.00;;;;5026952;28;20045;-81
2022/02/23 05:50:28;;;;;;;0.00;0.00;;;;;19.00;100492.00;;;;5026020;28;20116;-79
2022/02/23 05:52:59;;;;;;;0.00;0.00;;;;;19.00;100490.00;;;;5028165;28;20057;-79
2022/02/23 05:55:28;;;;;;;0.00;0.00;;;;;19.00;100485.00;;;;5030127;28;20041;-79
2022/02/23 05:57:58;;;;;;;0.00;0.00;;;;;18.90;100499.00;;;;5028830;28;20519;-80
2022/02/23 06:00:27;;;;;;;0.00;0.00;;;;;18.90;100509.00;;;;5028953;28;20041;-80
2022/02/23 06:02:57;;;;;;;0.00;0.00;;;;;18.90;100508.00;;;;5029931;28;20041;-80
2022/02/23 06:05:27;;;;;;;0.00;0.00;;;;;18.90;100497.00;;;;5030497;28;20416;-79
2022/02/23 06:07:57;;;;;;;0.00;0.00;;;;;18.80;100482.00;;;;5044890;28;20041;-79
2022/02/23 06:10:27;;;;;;;0.00;0.00;;;;;18.80;100484.00;;;;5029163;28;20053;-79
2022/02/23 06:12:57;;;;;;;0.00;0.00;;;;;18.80;100498.00;;;;5029065;28;20042;-80
2022/02/23 06:15:27;;;;;;;0.00;0.00;;;;;18.80;100481.00;;;;5030008;28;20045;-81
2022/02/23 06:17:56;;;;;;;0.00;0.00;;;;;18.80;100498.00;;;;5028482;28;20111;-78
2022/02/23 06:20:26;;;;;;;0.00;0.00;;;;;18.90;100495.00;;;;5028613;28;20052;-80
2022/02/23 06:22:55;;;;;;;0.00;0.00;;;;;18.80;100483.00;;;;5028374;28;20086;-80
2022/02/23 06:25:25;;;;;;;0.00;0.00;;;;;18.80;100485.00;;;;5029726;28;20050;-81
2022/02/23 06:28:02;;;;;;;0.00;0.00;;;;;18.80;100493.00;;;;5028299;28;20101;-78
2022/02/23 06:30:33;;;;;;;0.00;0.00;;;;;18.80;100480.00;;;;5029697;28;20624;-82
2022/02/23 06:33:02;;;;;;;0.00;0.00;;;;;18.80;100492.00;;;;5029508;28;20132;-81
2022/02/23 06:35:33;;;;;;;0.00;0.00;;;;;18.80;100480.00;;;;5028881;28;20428;-81
2022/02/23 06:38:03;;;;;;;0.00;0.00;;;;;18.80;100491.00;;;;5029817;28;20586;-79
2022/02/23 06:40:33;;;;;;;0.00;0.00;;;;;18.80;100495.00;;;;5029868;28;20055;-80
2022/02/23 06:43:02;;;;;;;0.00;0.00;;;;;18.70;100482.00;;;;5028390;28;20107;-80
2022/02/23 06:45:32;;;;;;;0.00;0.00;;;;;18.70;100495.00;;;;5027862;28;20053;-81
2022/02/23 06:48:02;;;;;;;0.00;0.00;;;;;18.70;100482.00;;;;5029282;28;20060;-79
2022/02/23 06:50:32;;;;;;;0.00;0.00;;;;;18.70;100489.00;;;;5029415;28;20072;-80
2022/02/23 06:53:01;;;;;;;0.00;0.00;;;;;18.70;100476.00;;;;5029740;28;20041;-78
2022/02/23 06:55:31;;;;;;;0.00;0.00;;;;;18.70;100469.00;;;;5028133;28;20144;-81
2022/02/23 06:58:00;;;;;;;0.00;0.00;;;;;18.70;100491.00;;;;5027655;28;20049;-80
2022/02/23 07:00:37;;;;;;;0.00;0.00;;;;;18.70;100479.00;;;;5027671;28;20144;-78
2022/02/23 07:03:11;;;;;;;0.00;0.00;;;;;18.70;100492.00;;;;5028627;28;20420;-78
2022/02/23 07:05:41;;;;;;;0.00;0.00;;;;;18.50;100491.00;;;;5027691;28;20056;-79
2022/02/23 07:08:11;;;;;;;0.00;0.00;;;;;18.40;100481.00;;;;5029042;28;20050;-78
2022/02/23 07:10:40;;;;;;;0.00;0.00;;;;;18.40;100479.00;;;;5027972;28;20511;-78
2022/02/23 07:13:11;;;;;;;0.00;0.00;;;;;18.60;100461.00;;;;5027615;28;20041;-78
2022/02/23 07:15:40;;;;;;;0.00;0.00;;;;;18.70;100464.00;;;;5027465;28;20722;-78
2022/02/23 07:18:10;;;;;;;0.00;0.00;;;;;18.60;100466.00;;;;5027510;28;20061;-78
2022/02/23 07:20:40;;;;;;;0.00;0.00;;;;;18.50;100476.00;;;;5029882;28;20041;-78
2022/02/23 07:23:09;;;;;;;0.00;0.00;;;;;18.60;100485.00;;;;5028738;28;20033;-79
2022/02/23 07:25:39;;;;;;;0.00;0.00;;;;;18.60;100491.00;;;;5027853;28;20053;-77
2022/02/23 07:28:08;;;;;;;0.00;0.00;;;;;18.50;100484.00;;;;5028036;28;20068;-80
2022/02/23 07:30:58;;;;;;;0.00;0.00;;;;;18.60;100480.00;;;;5029297;28;20041;-80
2022/02/23 07:33:27;;;;;;;0.13;0.13;;;;;18.50;100478.00;;;;5028367;28;20428;-78
2022/02/23 07:35:57;;;;;;;0.00;0.00;;;;;18.40;100470.00;;;;5027290;28;20165;-81
2022/02/23 07:38:28;;;;;;;0.00;0.00;;;;;18.40;100490.00;;;;5027118;28;20041;-80
2022/02/23 07:40:57;;;;;;;0.00;0.00;;;;;18.30;100478.00;;;;5027270;28;20065;-78
2022/02/23 07:43:47;;;;;;;0.00;0.00;;;;;18.20;100492.00;;;;5027271;28;20073;-77
2022/02/23 07:46:17;;;;;;;0.00;0.00;;;;;18.30;100493.00;;;;5028927;28;20057;-79
2022/02/23 07:48:47;;;;;;;0.00;0.00;;;;;18.30;100498.00;;;;5027116;28;20053;-80
2022/02/23 07:51:17;;;;;;;0.00;0.00;;;;;18.40;100472.00;;;;5043787;28;20572;-78
2022/02/23 07:53:48;;;;;;;0.00;0.00;;;;;18.40;100481.00;;;;5029075;28;20084;-78
2022/02/23 07:56:18;;;;;;;0.00;0.00;;;;;18.40;100506.00;;;;5026583;28;20057;-78
2022/02/23 07:58:50;;;;;;;0.00;0.00;;;;;18.40;100500.00;;;;5026998;28;20115;-78
2022/02/23 08:01:50;;;;;;;0.00;0.00;;;;;18.40;100505.00;;;;5027784;28;20651;-79
2022/02/23 08:04:21;;;;;;;0.00;0.00;;;;;18.30;100500.00;;;;5023199;28;20060;-79
2022/02/23 08:06:50;;;;;;;0.00;0.00;;;;;18.30;100505.00;;;;5027795;28;20292;-78
2022/02/23 08:09:19;;;;;;;0.00;0.00;;;;;18.20;100494.00;;;;5029466;28;20049;-81
2022/02/23 08:11:49;;;;;;;0.00;0.00;;;;;18.20;100509.00;;;;5029481;28;20052;-80
2022/02/23 08:14:18;;;;;;;0.00;0.00;;;;;18.20;100512.00;;;;5029562;28;20061;-78
2022/02/23 08:19:38;;;;;;;0.00;0.00;;;;;18.20;100521.00;;;;5034695;28;20056;-78
2022/02/23 08:22:14;;;;;;;0.00;0.00;;;;;18.20;100512.00;;;;5062516;28;20092;-78
2022/02/23 08:24:45;;;;;;;0.00;0.00;;;;;18.20;100527.00;;;;5053036;28;20033;-78
2022/02/23 08:27:17;;;;;;;0.00;0.00;;;;;18.20;100520.00;;;;5053634;28;20049;-79
2022/02/23 08:29:48;;;;;;;0.00;0.00;;;;;18.20;100533.00;;;;5053593;28;20354;-78
2022/02/23 08:32:19;;;;;;;0.00;0.00;;;;;18.20;100538.00;;;;5053210;28;20030;-78
2022/02/23 08:34:51;;;;;;;0.00;0.00;;;;;18.10;100541.00;;;;5051379;28;20045;-78
2022/02/23 08:37:21;;;;;;;0.00;0.00;;;;;18.10;100523.00;;;;5037750;28;20095;-82
2022/02/23 08:39:51;;;;;;;0.00;0.00;;;;;18.10;100527.00;;;;5042908;28;20061;-80
2022/02/23 08:42:21;;;;;;;0.00;0.00;;;;;17.90;100519.00;;;;5026652;28;20448;-80
2022/02/23 08:44:50;;;;;;;0.00;0.00;;;;;17.80;100520.00;;;;5042873;28;20536;-78
2022/02/23 08:47:23;;;;;;;0.00;0.00;;;;;17.70;100546.00;;;;5027618;28;20041;-77
2022/02/23 08:49:53;;;;;;;0.00;0.00;;;;;17.70;100546.00;;;;5027482;28;20041;-79
2022/02/23 08:52:23;;;;;;;0.00;0.00;;;;;17.70;100542.00;;;;5027004;28;20041;-80
2022/02/23 08:54:52;;;;;;;0.00;0.00;;;;;17.60;100560.00;;;;5026145;28;20508;-78
2022/02/23 08:57:21;;;;;;;0.00;0.00;;;;;17.80;100551.00;;;;5027202;28;20045;-79
2022/02/23 08:59:51;;;;;;;0.00;0.00;;;;;17.80;100552.00;;;;5026355;28;20049;-81
2022/02/23 09:02:20;;;;;;;0.00;0.00;;;;;17.70;100570.00;;;;5026050;28;20033;-80
2022/02/23 09:04:50;;;;;;;0.00;0.00;;;;;17.80;100562.00;;;;5027041;28;20049;-79
2022/02/23 09:07:19;;;;;;;0.00;0.00;;;;;17.90;100548.00;;;;5025885;28;20053;-78
2022/02/23 09:09:48;;;;;;;0.00;0.00;;;;;17.90;100537.00;;;;5026846;28;20052;-80
2022/02/23 09:12:19;;;;;;;0.00;0.00;;;;;17.80;100544.00;;;;5009395;28;20045;-79
2022/02/23 09:14:49;;;;;;;0.00;0.00;;;;;17.80;100563.00;;;;5026636;28;20076;-80
2022/02/23 09:17:19;;;;;;;0.00;0.00;;;;;17.80;100556.00;;;;5027241;28;20041;-79
2022/02/23 09:19:51;;;;;;;0.00;0.00;;;;;17.80;100559.00;;;;5027102;28;20117;-79
2022/02/23 09:22:22;;;;;;;0.00;0.00;;;;;17.80;100572.00;;;;5026989;28;20111;-78
2022/02/23 09:24:53;;;;;;;0.00;0.00;;;;;17.80;100555.00;;;;5042126;28;20053;-81
2022/02/23 09:27:23;;;;;;;0.00;0.00;;;;;17.80;100557.00;;;;5041456;28;20040;-80
2022/02/23 09:29:52;;;;;;;0.00;0.00;;;;;17.80;100556.00;;;;5027021;28;20042;-78
2022/02/23 09:32:22;;;;;;;0.00;0.00;;;;;17.90;100561.00;;;;5025325;28;20049;-80
2022/02/23 09:34:51;;;;;;;0.00;0.00;;;;;18.00;100553.00;;;;5026834;28;20048;-78
2022/02/23 09:37:21;;;;;;;0.00;0.00;;;;;18.00;100559.00;;;;5041994;28;20160;-78
2022/02/23 09:39:50;;;;;;;0.00;0.00;;;;;18.10;100565.00;;;;5025647;28;20048;-78
2022/02/23 09:42:20;;;;;;;0.00;0.00;;;;;18.10;100569.00;;;;5026486;28;20135;-79
2022/02/23 09:44:50;;;;;;;0.00;0.00;;;;;18.10;100567.00;;;;5025397;28;20049;-80
2022/02/23 09:47:39;;;;;;;0.00;0.00;;;;;18.30;100554.00;;;;5011932;28;20045;-79
2022/02/23 09:50:20;;;;;;;0.00;0.00;;;;;18.40;100564.00;;;;5025340;28;20042;-79
2022/02/23 09:52:52;;;;;;;0.00;0.00;;;;;18.50;100583.00;;;;5025117;28;20080;-77
2022/02/23 09:55:22;;;;;;;0.00;0.00;;;;;18.60;100586.00;;;;5009728;28;20408;-78
2022/02/23 09:57:53;;;;;;;0.00;0.00;;;;;18.70;100574.00;;;;5026294;28;20133;-76
2022/02/23 10:00:23;;;;;;;0.00;0.00;;;;;18.80;100577.00;;;;5041570;28;20120;-77
2022/02/23 10:02:54;;;;;;;0.00;0.00;;;;;18.90;100591.00;;;;5026699;28;20037;-80
2022/02/23 10:05:23;;;;;;;0.00;0.00;;;;;19.00;100575.00;;;;5026332;28;20387;-79
2022/02/23 10:08:04;;;;;;;0.00;0.00;;;;;19.10;100574.00;;;;5026609;28;20042;-77
2022/02/23 10:10:55;;;;;;;0.00;0.00;;;;;19.20;100582.00;;;;5026391;28;20119;-78
2022/02/23 10:13:25;;;;;;;0.00;0.00;;;;;19.40;100583.00;;;;5041031;28;20049;-78
2022/02/23 10:15:56;;;;;;;0.00;0.00;;;;;19.70;100576.00;;;;5025862;28;20053;-79
2022/02/23 10:18:45;;;;;;;;;;;;;21.50;100486.00;;;;5026534;28;20053;-79
2022/02/23 10:21:22;;;;;;;0.00;0.00;;;;;25.10;100423.00;;;;5025006;28;20039;-80
2022/02/23 10:23:54;;;;;;;0.00;0.00;;;;;26.50;100420.00;;;;5025812;28;20045;-80
2022/02/23 10:26:30;;;;;;;0.00;0.00;;;;;27.70;100428.00;;;;5025675;28;20110;-80
2022/02/23 10:29:01;;;;;;;0.00;0.00;;;;;28.50;100424.00;;;;5026688;28;20033;-78
2022/02/23 10:31:31;;;;;;;0.00;0.00;;;;;29.00;100418.00;;;;5026174;28;20045;-80
2022/02/23 10:34:19;;;;;;;0.00;0.00;;;;;29.50;100426.00;;;;5026061;28;20052;-78
2022/02/23 10:37:19;;;;;;;0.30;0.30;;;;;30.30;100428.00;;;;5024875;28;20049;-79
2022/02/23 10:39:53;;;;;;;0.00;0.00;;;;;31.20;100418.00;;;;5026723;28;20057;-77
2022/02/23 10:42:26;;;;;;;0.00;0.00;;;;;31.80;100431.00;;;;5029317;28;20440;-79
2022/02/23 10:44:59;;;;;;;0.00;0.00;;;;;31.40;100431.00;;;;5026814;28;20060;-79
2022/02/23 10:47:34;;;;;;;0.00;0.00;;;;;30.90;100433.00;;;;5027029;28;20060;-81
2022/02/23 10:50:13;;;;;;;0.00;0.00;;;;;30.90;100441.00;;;;5028422;28;20049;-80
2022/02/23 10:52:51;;;;;;;0.00;0.00;;;;;31.20;100429.00;;;;5027568;28;20045;-82
2022/02/23 10:55:24;;;;;;;0.00;0.00;;;;;31.30;100434.00;;;;5027298;28;20172;-81
2022/02/23 10:57:59;;;;;;;0.00;0.00;;;;;31.00;100417.00;;;;5027924;28;20049;-80
2022/02/23 11:00:32;;;;;;;0.00;0.00;;;;;31.30;100436.00;;;;5011328;28;20152;-81
2022/02/23 11:03:03;;;;;;;0.00;0.00;;;;;31.40;100426.00;;;;5027528;28;20107;-81
2022/02/23 11:05:33;;;;;;;0.00;0.00;;;;;32.00;100430.00;;;;5029267;28;20041;-80
2022/02/23 11:08:04;;;;;;;0.00;0.00;;;;;31.80;100440.00;;;;5028119;28;20045;-80
2022/02/23 11:10:33;;;;;;;0.00;0.00;;;;;29.80;100537.00;;;;5028832;28;20044;-78
2022/02/23 11:13:03;;;;;;;0.00;0.00;;;;;27.70;100574.00;;;;5027434;28;20053;-79
2022/02/23 11:15:32;;;;;;;0.00;0.00;;;;;26.20;100609.00;;;;5029172;28;20045;-82
2022/02/23 11:18:03;;;;;;;0.65;0.45;;;;;25.80;100593.00;;;;5028113;28;20061;-80
2022/02/23 11:20:32;;;;;;;0.00;0.00;;;;;26.30;100575.00;;;;5028719;28;20053;-81
2022/02/23 11:23:04;;;;;;;0.00;0.00;;;;;27.20;100540.00;;;;5028774;28;20042;-83
2022/02/23 11:25:38;;;;;;;0.00;0.00;;;;;29.30;100427.00;;;;5026165;28;20168;-82
2022/02/23 11:28:33;;;;;;;0.10;0.10;;;;;28.70;100588.00;;;;5025748;28;20072;-79
2022/02/23 11:31:16;;;;;;;0.00;0.00;;;;;26.30;100637.00;;;;5027546;28;20061;-78
2022/02/23 11:33:55;;;;;;;0.00;0.00;;;;;25.10;100642.00;;;;5027229;28;20459;-81
2022/02/23 11:36:28;;;;;;;0.03;0.03;;;;;27.00;100502.00;;;;5027103;28;20049;-78
2022/02/23 11:39:04;;;;;;;0.00;0.00;;;;;29.40;100476.00;;;;5027400;28;20520;-81
2022/02/23 11:41:39;;;;;;;0.00;0.00;;;;;30.50;100409.00;;;;5028070;28;20049;-77
2022/02/23 11:44:09;;;;;;;0.00;0.00;;;;;33.10;100442.00;;;;5027817;28;20052;-78
2022/02/23 11:46:56;;;;;;;0.00;0.00;;;;;33.50;100436.00;;;;5027575;28;20103;-81
2022/02/23 11:49:32;;;;;;;0.00;0.00;;;;;33.70;100436.00;;;;5026222;28;20049;-79
2022/02/23 11:52:15;;;;;;;0.00;0.00;;;;;34.00;100442.00;;;;5026836;28;20060;-82
2022/02/23 11:54:49;;;;;;;0.05;0.05;;;;;34.20;100448.00;;;;5028412;28;20128;-83
2022/02/23 11:57:56;;;;;;;0.00;0.00;;;;;33.40;100458.00;;;;5026881;28;20508;-81
2022/02/23 12:00:26;;;;;;;0.00;0.00;;;;;33.60;100467.00;;;;5025942;28;20052;-79
2022/02/23 12:03:11;;;;;;;1.15;0.25;;;;;33.40;100476.00;;;;5026855;28;20033;-80
2022/02/23 12:05:53;;;;;;;0.00;0.00;;;;;33.20;100491.00;;;;5022454;28;20050;-82
2022/02/23 12:08:34;;;;;;;0.00;0.00;;;;;32.40;100578.00;;;;5006810;28;20524;-81
2022/02/23 12:11:15;;;;;;;0.00;0.00;;;;;32.90;100513.00;;;;5007805;28;20050;-82
2022/02/23 12:13:51;;;;;;;;;;;;;32.00;100565.00;;;;5007039;28;20505;-83
2022/02/23 12:16:24;;;;;;;0.00;0.00;;;;;30.60;100594.00;;;;5006830;28;19968;-81
2022/02/23 12:18:58;;;;;;;0.00;0.00;;;;;30.10;100604.00;;;;5008283;28;20514;-82
2022/02/23 12:21:44;;;;;;;0.00;0.00;;;;;30.40;100600.00;;;;5008829;28;20050;-82
2022/02/23 12:24:18;;;;;;;0.00;0.00;;;;;31.10;100599.00;;;;5007025;28;20084;-79
2022/02/23 12:26:54;;;;;;;0.00;0.00;;;;;31.70;100596.00;;;;5023179;28;20053;-79
2022/02/23 12:29:29;;;;;;;0.00;0.00;;;;;32.20;100592.00;;;;5023274;28;20045;-79
2022/02/23 12:32:06;;;;;;;0.28;0.13;;;;;31.90;100588.00;;;;5023302;28;20539;-81
2022/02/23 12:34:38;;;;;;;0.00;0.00;;;;;31.60;100570.00;;;;5024016;28;20459;-83